sensor_id;sensor_type;location;lat;lon;timestamp;temperature;humidity
21722;DHT22;11023;48.274;7.794;2023-10-09T00:01:04;13.10;99.90
21722;DHT22;11023;48.274;7.794;2023-10-09T00:03:43;13.00;99.90
21722;DHT22;11023;48.274;7.794;2023-10-09T00:06:09;13.00;99.90
21722;DHT22;11023;48.274;7.794;2023-10-09T00:08:39;12.90;99.90
21722;DHT22;11023;48.274;7.794;2023-10-09T00:11:10;12.80;99.90
21722;DHT22;11023;48.274;7.794;2023-10-09T00:13:55;12.80;99.90
21722;DHT22;11023;48.274;7.794;2023-10-09T00:16:25;12.70;99.90
21722;DHT22;11023;48.274;7.794;2023-10-09T00:19:04;12.70;99.90
21722;DHT22;11023;48.274;7.794;2023-10-09T00:21:43;12.60;99.90
21722;DHT22;11023;48.274;7.794;2023-10-09T00:24:09;12.60;99.90
21722;DHT22;11023;48.274;7.794;2023-10-09T00:26:52;12.50;99.90
21722;DHT22;11023;48.274;7.794;2023-10-09T00:29:21;12.50;99.90
21722;DHT22;11023;48.274;7.794;2023-10-09T00:31:54;12.50;99.90
21722;DHT22;11023;48.274;7.794;2023-10-09T00:34:42;12.50;99.90
21722;DHT22;11023;48.274;7.794;2023-10-09T00:37:11;12.40;99.90
21722;DHT22;11023;48.274;7.794;2023-10-09T00:39:50;12.40;99.90
21722;DHT22;11023;48.274;7.794;2023-10-09T00:42:23;12.30;99.90
21722;DHT22;11023;48.274;7.794;2023-10-09T00:44:58;12.30;99.90
21722;DHT22;11023;48.274;7.794;2023-10-09T00:47:44;12.30;99.90
21722;DHT22;11023;48.274;7.794;2023-10-09T00:50:13;12.30;99.90
21722;DHT22;11023;48.274;7.794;2023-10-09T00:52:45;12.30;99.90
21722;DHT22;11023;48.274;7.794;2023-10-09T00:55:18;12.30;99.90
21722;DHT22;11023;48.274;7.794;2023-10-09T00:57:54;12.30;99.90
21722;DHT22;11023;48.274;7.794;2023-10-09T01:00:27;12.40;99.90
21722;DHT22;11023;48.274;7.794;2023-10-09T01:03:16;12.30;99.90
21722;DHT22;11023;48.274;7.794;2023-10-09T01:05:43;12.30;99.90
21722;DHT22;11023;48.274;7.794;2023-10-09T01:08:19;12.30;99.90
21722;DHT22;11023;48.274;7.794;2023-10-09T01:10:54;12.30;99.90
21722;DHT22;11023;48.274;7.794;2023-10-09T01:13:25;12.30;99.90
21722;DHT22;11023;48.274;7.794;2023-10-09T01:16:14;12.30;99.90
21722;DHT22;11023;48.274;7.794;2023-10-09T01:18:44;12.30;99.90
21722;DHT22;11023;48.274;7.794;2023-10-09T01:21:11;12.30;99.90
21722;DHT22;11023;48.274;7.794;2023-10-09T01:23:43;12.30;99.90
21722;DHT22;11023;48.274;7.794;2023-10-09T01:26:25;12.30;99.90
21722;DHT22;11023;48.274;7.794;2023-10-09T01:28:51;12.20;99.90
21722;DHT22;11023;48.274;7.794;2023-10-09T01:31:24;12.10;99.90
21722;DHT22;11023;48.274;7.794;2023-10-09T01:33:59;12.10;99.90
21722;DHT22;11023;48.274;7.794;2023-10-09T01:36:26;12.00;99.90
21722;DHT22;11023;48.274;7.794;2023-10-09T01:39:01;12.00;99.90
21722;DHT22;11023;48.274;7.794;2023-10-09T01:41:50;12.00;99.90
21722;DHT22;11023;48.274;7.794;2023-10-09T01:44:27;11.90;99.90
21722;DHT22;11023;48.274;7.794;2023-10-09T01:46:55;11.90;99.90
21722;DHT22;11023;48.274;7.794;2023-10-09T01:49:22;11.90;99.90
21722;DHT22;11023;48.274;7.794;2023-10-09T01:51:55;11.90;99.90
21722;DHT22;11023;48.274;7.794;2023-10-09T01:54:25;11.90;99.90
21722;DHT22;11023;48.274;7.794;2023-10-09T01:57:03;11.80;99.90
21722;DHT22;11023;48.274;7.794;2023-10-09T01:59:34;11.70;99.90
21722;DHT22;11023;48.274;7.794;2023-10-09T02:02:06;11.60;99.90
21722;DHT22;11023;48.274;7.794;2023-10-09T02:04:55;11.60;99.90
21722;DHT22;11023;48.274;7.794;2023-10-09T02:07:51;11.50;99.90
21722;DHT22;11023;48.274;7.794;2023-10-09T02:10:20;11.50;99.90
21722;DHT22;11023;48.274;7.794;2023-10-09T02:13:13;11.50;99.90
21722;DHT22;11023;48.274;7.794;2023-10-09T02:15:43;11.50;99.90
21722;DHT22;11023;48.274;7.794;2023-10-09T02:18:16;11.50;99.90
21722;DHT22;11023;48.274;7.794;2023-10-09T02:21:04;11.50;99.90
21722;DHT22;11023;48.274;7.794;2023-10-09T02:23:31;11.60;99.90
21722;DHT22;11023;48.274;7.794;2023-10-09T02:26:19;11.60;99.90
21722;DHT22;11023;48.274;7.794;2023-10-09T02:28:53;11.60;99.90
21722;DHT22;11023;48.274;7.794;2023-10-09T02:31:26;11.70;99.90
21722;DHT22;11023;48.274;7.794;2023-10-09T02:34:01;11.70;99.90
21722;DHT22;11023;48.274;7.794;2023-10-09T02:36:30;11.70;99.90
21722;DHT22;11023;48.274;7.794;2023-10-09T02:38:56;11.70;99.90
21722;DHT22;11023;48.274;7.794;2023-10-09T02:41:22;11.70;99.90
21722;DHT22;11023;48.274;7.794;2023-10-09T02:43:54;11.60;99.90
21722;DHT22;11023;48.274;7.794;2023-10-09T02:46:35;11.60;99.90
21722;DHT22;11023;48.274;7.794;2023-10-09T02:49:02;11.60;99.90
21722;DHT22;11023;48.274;7.794;2023-10-09T02:51:35;11.60;99.90
21722;DHT22;11023;48.274;7.794;2023-10-09T02:54:07;11.60;99.90
21722;DHT22;11023;48.274;7.794;2023-10-09T02:56:50;11.60;99.90
21722;DHT22;11023;48.274;7.794;2023-10-09T02:59:31;11.70;99.90
21722;DHT22;11023;48.274;7.794;2023-10-09T03:01:57;11.60;99.90
21722;DHT22;11023;48.274;7.794;2023-10-09T03:04:25;11.70;99.90
21722;DHT22;11023;48.274;7.794;2023-10-09T03:06:59;11.70;99.90
21722;DHT22;11023;48.274;7.794;2023-10-09T03:09:25;11.70;99.90
21722;DHT22;11023;48.274;7.794;2023-10-09T03:11:56;11.70;99.90
21722;DHT22;11023;48.274;7.794;2023-10-09T03:14:28;11.70;99.90
21722;DHT22;11023;48.274;7.794;2023-10-09T03:16:54;11.60;99.90
21722;DHT22;11023;48.274;7.794;2023-10-09T03:19:21;11.60;99.90
21722;DHT22;11023;48.274;7.794;2023-10-09T03:21:47;11.60;99.90
21722;DHT22;11023;48.274;7.794;2023-10-09T03:24:13;11.50;99.90
21722;DHT22;11023;48.274;7.794;2023-10-09T03:26:38;11.50;99.90
21722;DHT22;11023;48.274;7.794;2023-10-09T03:29:04;11.50;99.90
21722;DHT22;11023;48.274;7.794;2023-10-09T03:31:36;11.40;99.90
21722;DHT22;11023;48.274;7.794;2023-10-09T03:34:02;11.30;99.90
21722;DHT22;11023;48.274;7.794;2023-10-09T03:36:29;11.20;99.90
21722;DHT22;11023;48.274;7.794;2023-10-09T03:38:59;11.20;99.90
21722;DHT22;11023;48.274;7.794;2023-10-09T03:41:25;11.10;99.90
21722;DHT22;11023;48.274;7.794;2023-10-09T03:43:53;11.20;99.90
21722;DHT22;11023;48.274;7.794;2023-10-09T03:46:21;11.10;99.90
21722;DHT22;11023;48.274;7.794;2023-10-09T03:48:51;11.20;99.90
21722;DHT22;11023;48.274;7.794;2023-10-09T03:51:18;11.30;99.90
21722;DHT22;11023;48.274;7.794;2023-10-09T03:53:51;11.30;99.90
21722;DHT22;11023;48.274;7.794;2023-10-09T03:56:18;11.30;99.90
21722;DHT22;11023;48.274;7.794;2023-10-09T03:58:50;11.30;99.90
21722;DHT22;11023;48.274;7.794;2023-10-09T04:01:20;11.30;99.90
21722;DHT22;11023;48.274;7.794;2023-10-09T04:03:55;11.20;99.90
21722;DHT22;11023;48.274;7.794;2023-10-09T04:06:25;11.20;99.90
21722;DHT22;11023;48.274;7.794;2023-10-09T04:08:57;11.10;99.90
21722;DHT22;11023;48.274;7.794;2023-10-09T04:11:25;11.00;99.90
21722;DHT22;11023;48.274;7.794;2023-10-09T04:13:51;11.00;99.90
21722;DHT22;11023;48.274;7.794;2023-10-09T04:16:25;11.00;99.90
21722;DHT22;11023;48.274;7.794;2023-10-09T04:18:57;11.10;99.90
21722;DHT22;11023;48.274;7.794;2023-10-09T04:21:23;11.10;99.90
21722;DHT22;11023;48.274;7.794;2023-10-09T04:23:55;11.20;99.90
21722;DHT22;11023;48.274;7.794;2023-10-09T04:26:45;11.30;99.90
21722;DHT22;11023;48.274;7.794;2023-10-09T04:29:11;11.30;99.90
21722;DHT22;11023;48.274;7.794;2023-10-09T04:31:49;11.30;99.90
21722;DHT22;11023;48.274;7.794;2023-10-09T04:34:20;11.30;99.90
21722;DHT22;11023;48.274;7.794;2023-10-09T04:36:55;11.30;99.90
21722;DHT22;11023;48.274;7.794;2023-10-09T04:39:47;11.40;99.90
21722;DHT22;11023;48.274;7.794;2023-10-09T04:42:14;11.40;99.90
21722;DHT22;11023;48.274;7.794;2023-10-09T04:44:49;11.50;99.90
21722;DHT22;11023;48.274;7.794;2023-10-09T04:47:34;11.60;99.90
21722;DHT22;11023;48.274;7.794;2023-10-09T04:50:16;11.60;99.90
21722;DHT22;11023;48.274;7.794;2023-10-09T04:52:44;11.60;99.90
21722;DHT22;11023;48.274;7.794;2023-10-09T04:55:10;11.60;99.90
21722;DHT22;11023;48.274;7.794;2023-10-09T04:57:46;11.50;99.90
21722;DHT22;11023;48.274;7.794;2023-10-09T05:00:25;11.50;99.90
21722;DHT22;11023;48.274;7.794;2023-10-09T05:02:53;11.50;99.90
21722;DHT22;11023;48.274;7.794;2023-10-09T05:05:28;11.50;99.90
21722;DHT22;11023;48.274;7.794;2023-10-09T05:08:08;11.40;99.90
21722;DHT22;11023;48.274;7.794;2023-10-09T05:10:51;11.40;99.90
21722;DHT22;11023;48.274;7.794;2023-10-09T05:13:35;11.30;99.90
21722;DHT22;11023;48.274;7.794;2023-10-09T05:16:16;11.30;99.90
21722;DHT22;11023;48.274;7.794;2023-10-09T05:18:46;11.30;99.90
21722;DHT22;11023;48.274;7.794;2023-10-09T05:21:39;11.30;99.90
21722;DHT22;11023;48.274;7.794;2023-10-09T05:24:09;11.30;99.90
21722;DHT22;11023;48.274;7.794;2023-10-09T05:29:31;11.40;99.90
21722;DHT22;11023;48.274;7.794;2023-10-09T05:32:05;11.40;99.90
21722;DHT22;11023;48.274;7.794;2023-10-09T05:34:41;11.40;99.90
21722;DHT22;11023;48.274;7.794;2023-10-09T05:37:30;11.40;99.90
21722;DHT22;11023;48.274;7.794;2023-10-09T05:40:00;11.40;99.90
21722;DHT22;11023;48.274;7.794;2023-10-09T05:42:27;11.40;99.90
21722;DHT22;11023;48.274;7.794;2023-10-09T05:45:13;11.40;99.90
21722;DHT22;11023;48.274;7.794;2023-10-09T05:47:57;11.40;99.90
21722;DHT22;11023;48.274;7.794;2023-10-09T05:50:27;11.40;99.90
21722;DHT22;11023;48.274;7.794;2023-10-09T05:52:54;11.40;99.90
21722;DHT22;11023;48.274;7.794;2023-10-09T05:55:21;11.50;99.90
21722;DHT22;11023;48.274;7.794;2023-10-09T05:57:46;11.50;99.90
21722;DHT22;11023;48.274;7.794;2023-10-09T06:00:27;11.50;99.90
21722;DHT22;11023;48.274;7.794;2023-10-09T06:03:11;11.50;99.90
21722;DHT22;11023;48.274;7.794;2023-10-09T06:05:53;11.50;99.90
21722;DHT22;11023;48.274;7.794;2023-10-09T06:08:19;11.50;99.90
21722;DHT22;11023;48.274;7.794;2023-10-09T06:11:04;11.50;99.90
21722;DHT22;11023;48.274;7.794;2023-10-09T06:13:48;11.50;99.90
21722;DHT22;11023;48.274;7.794;2023-10-09T06:16:27;11.60;99.90
21722;DHT22;11023;48.274;7.794;2023-10-09T06:19:11;11.60;99.90
21722;DHT22;11023;48.274;7.794;2023-10-09T06:21:49;11.60;99.90
21722;DHT22;11023;48.274;7.794;2023-10-09T06:24:22;11.60;99.90
21722;DHT22;11023;48.274;7.794;2023-10-09T06:27:06;11.60;99.90
21722;DHT22;11023;48.274;7.794;2023-10-09T06:29:32;11.60;99.90
21722;DHT22;11023;48.274;7.794;2023-10-09T06:32:05;11.70;99.90
21722;DHT22;11023;48.274;7.794;2023-10-09T06:34:59;11.70;99.90
21722;DHT22;11023;48.274;7.794;2023-10-09T06:37:45;11.70;99.90
21722;DHT22;11023;48.274;7.794;2023-10-09T06:40:36;11.80;99.90
21722;DHT22;11023;48.274;7.794;2023-10-09T06:43:19;11.90;99.90
21722;DHT22;11023;48.274;7.794;2023-10-09T06:45:51;11.90;99.90
21722;DHT22;11023;48.274;7.794;2023-10-09T06:48:27;11.90;99.90
21722;DHT22;11023;48.274;7.794;2023-10-09T06:51:12;12.00;99.90
21722;DHT22;11023;48.274;7.794;2023-10-09T06:53:42;12.10;99.90
21722;DHT22;11023;48.274;7.794;2023-10-09T06:56:26;12.10;99.90
21722;DHT22;11023;48.274;7.794;2023-10-09T06:59:15;12.20;99.90
21722;DHT22;11023;48.274;7.794;2023-10-09T07:01:48;12.30;99.90
21722;DHT22;11023;48.274;7.794;2023-10-09T07:04:33;12.30;99.90
21722;DHT22;11023;48.274;7.794;2023-10-09T07:06:58;12.40;99.90
21722;DHT22;11023;48.274;7.794;2023-10-09T07:09:25;12.50;99.90
21722;DHT22;11023;48.274;7.794;2023-10-09T07:12:10;12.60;99.90
21722;DHT22;11023;48.274;7.794;2023-10-09T07:14:40;12.70;99.90
21722;DHT22;11023;48.274;7.794;2023-10-09T07:17:25;12.80;99.90
21722;DHT22;11023;48.274;7.794;2023-10-09T07:20:00;12.90;99.90
21722;DHT22;11023;48.274;7.794;2023-10-09T07:22:37;13.00;99.90
21722;DHT22;11023;48.274;7.794;2023-10-09T07:25:22;13.10;99.90
21722;DHT22;11023;48.274;7.794;2023-10-09T07:28:10;13.20;99.90
21722;DHT22;11023;48.274;7.794;2023-10-09T07:31:04;13.40;99.90
21722;DHT22;11023;48.274;7.794;2023-10-09T07:33:34;13.50;99.90
21722;DHT22;11023;48.274;7.794;2023-10-09T07:36:17;13.60;99.90
21722;DHT22;11023;48.274;7.794;2023-10-09T07:38:55;13.70;99.90
21722;DHT22;11023;48.274;7.794;2023-10-09T07:41:21;13.90;99.90
21722;DHT22;11023;48.274;7.794;2023-10-09T07:43:46;13.90;99.90
21722;DHT22;11023;48.274;7.794;2023-10-09T07:46:19;14.10;99.90
21722;DHT22;11023;48.274;7.794;2023-10-09T07:49:17;14.10;99.90
21722;DHT22;11023;48.274;7.794;2023-10-09T07:51:50;14.30;99.90
21722;DHT22;11023;48.274;7.794;2023-10-09T07:54:18;14.40;99.90
21722;DHT22;11023;48.274;7.794;2023-10-09T07:56:58;14.60;99.90
21722;DHT22;11023;48.274;7.794;2023-10-09T07:59:34;14.80;99.90
21722;DHT22;11023;48.274;7.794;2023-10-09T08:02:07;15.00;99.90
21722;DHT22;11023;48.274;7.794;2023-10-09T08:04:39;15.10;99.90
21722;DHT22;11023;48.274;7.794;2023-10-09T08:07:16;15.30;99.90
21722;DHT22;11023;48.274;7.794;2023-10-09T08:10:03;15.50;99.90
21722;DHT22;11023;48.274;7.794;2023-10-09T08:12:45;15.60;99.90
21722;DHT22;11023;48.274;7.794;2023-10-09T08:15:15;15.70;99.90
21722;DHT22;11023;48.274;7.794;2023-10-09T08:17:55;15.80;99.90
21722;DHT22;11023;48.274;7.794;2023-10-09T08:20:39;16.00;99.90
21722;DHT22;11023;48.274;7.794;2023-10-09T08:23:23;16.10;99.90
21722;DHT22;11023;48.274;7.794;2023-10-09T08:26:09;16.30;99.90
21722;DHT22;11023;48.274;7.794;2023-10-09T08:28:42;16.50;99.90
21722;DHT22;11023;48.274;7.794;2023-10-09T08:31:17;16.70;99.90
21722;DHT22;11023;48.274;7.794;2023-10-09T08:34:13;17.00;99.90
21722;DHT22;11023;48.274;7.794;2023-10-09T08:37:01;17.30;99.90
21722;DHT22;11023;48.274;7.794;2023-10-09T08:39:27;17.60;99.90
21722;DHT22;11023;48.274;7.794;2023-10-09T08:41:55;18.00;99.90
21722;DHT22;11023;48.274;7.794;2023-10-09T08:44:25;18.30;99.90
21722;DHT22;11023;48.274;7.794;2023-10-09T08:46:57;18.70;99.90
21722;DHT22;11023;48.274;7.794;2023-10-09T08:49:24;18.90;99.90
21722;DHT22;11023;48.274;7.794;2023-10-09T08:51:51;19.20;99.90
21722;DHT22;11023;48.274;7.794;2023-10-09T08:54:18;19.40;99.90
21722;DHT22;11023;48.274;7.794;2023-10-09T08:56:47;19.70;99.90
21722;DHT22;11023;48.274;7.794;2023-10-09T08:59:17;19.90;99.90
21722;DHT22;11023;48.274;7.794;2023-10-09T09:01:48;20.10;99.90
21722;DHT22;11023;48.274;7.794;2023-10-09T09:04:37;20.30;99.90
21722;DHT22;11023;48.274;7.794;2023-10-09T09:07:04;20.40;99.90
21722;DHT22;11023;48.274;7.794;2023-10-09T09:09:31;20.50;99.90
21722;DHT22;11023;48.274;7.794;2023-10-09T09:11:58;20.70;99.90
21722;DHT22;11023;48.274;7.794;2023-10-09T09:14:36;20.80;99.90
21722;DHT22;11023;48.274;7.794;2023-10-09T09:17:06;20.90;99.90
21722;DHT22;11023;48.274;7.794;2023-10-09T09:19:37;21.00;99.90
21722;DHT22;11023;48.274;7.794;2023-10-09T09:22:04;21.10;99.90
21722;DHT22;11023;48.274;7.794;2023-10-09T09:24:41;21.20;99.90
21722;DHT22;11023;48.274;7.794;2023-10-09T09:27:43;21.30;99.90
21722;DHT22;11023;48.274;7.794;2023-10-09T09:30:28;21.40;99.90
21722;DHT22;11023;48.274;7.794;2023-10-09T09:33:20;21.60;99.90
21722;DHT22;11023;48.274;7.794;2023-10-09T09:36:04;21.80;99.90
21722;DHT22;11023;48.274;7.794;2023-10-09T09:38:31;22.00;99.90
21722;DHT22;11023;48.274;7.794;2023-10-09T09:41:17;22.20;99.90
21722;DHT22;11023;48.274;7.794;2023-10-09T09:43:57;22.30;99.90
21722;DHT22;11023;48.274;7.794;2023-10-09T09:46:31;22.50;99.90
21722;DHT22;11023;48.274;7.794;2023-10-09T09:49:03;22.70;99.90
21722;DHT22;11023;48.274;7.794;2023-10-09T09:51:32;22.70;99.90
21722;DHT22;11023;48.274;7.794;2023-10-09T09:53:58;22.90;99.90
21722;DHT22;11023;48.274;7.794;2023-10-09T09:56:28;22.90;99.90
21722;DHT22;11023;48.274;7.794;2023-10-09T09:58:57;22.90;99.90
21722;DHT22;11023;48.274;7.794;2023-10-09T10:01:30;23.00;99.90
21722;DHT22;11023;48.274;7.794;2023-10-09T10:04:14;23.00;99.90
21722;DHT22;11023;48.274;7.794;2023-10-09T10:06:46;23.00;99.90
21722;DHT22;11023;48.274;7.794;2023-10-09T10:09:41;23.00;99.90
21722;DHT22;11023;48.274;7.794;2023-10-09T10:12:12;23.10;99.90
21722;DHT22;11023;48.274;7.794;2023-10-09T10:14:53;23.10;99.90
21722;DHT22;11023;48.274;7.794;2023-10-09T10:17:22;23.10;99.90
21722;DHT22;11023;48.274;7.794;2023-10-09T10:22:29;23.20;99.90
21722;DHT22;11023;48.274;7.794;2023-10-09T10:25:02;23.30;99.90
21722;DHT22;11023;48.274;7.794;2023-10-09T10:27:35;23.30;99.90
21722;DHT22;11023;48.274;7.794;2023-10-09T10:30:26;23.50;99.90
21722;DHT22;11023;48.274;7.794;2023-10-09T10:32:57;23.70;99.90
21722;DHT22;11023;48.274;7.794;2023-10-09T10:35:49;23.90;99.90
21722;DHT22;11023;48.274;7.794;2023-10-09T10:38:33;24.10;99.90
21722;DHT22;11023;48.274;7.794;2023-10-09T10:41:19;24.30;99.90
21722;DHT22;11023;48.274;7.794;2023-10-09T10:43:48;24.40;99.90
21722;DHT22;11023;48.274;7.794;2023-10-09T10:46:26;24.50;99.90
21722;DHT22;11023;48.274;7.794;2023-10-09T10:48:55;24.60;99.90
21722;DHT22;11023;48.274;7.794;2023-10-09T10:51:50;24.80;99.90
21722;DHT22;11023;48.274;7.794;2023-10-09T10:54:36;25.00;99.90
21722;DHT22;11023;48.274;7.794;2023-10-09T10:57:02;25.20;99.90
21722;DHT22;11023;48.274;7.794;2023-10-09T10:59:39;25.30;99.90
21722;DHT22;11023;48.274;7.794;2023-10-09T11:02:10;25.40;99.90
21722;DHT22;11023;48.274;7.794;2023-10-09T11:04:36;25.50;99.90
21722;DHT22;11023;48.274;7.794;2023-10-09T11:07:02;25.60;99.90
21722;DHT22;11023;48.274;7.794;2023-10-09T11:09:48;25.60;99.90
21722;DHT22;11023;48.274;7.794;2023-10-09T11:12:45;25.60;99.90
21722;DHT22;11023;48.274;7.794;2023-10-09T11:15:38;25.60;99.90
21722;DHT22;11023;48.274;7.794;2023-10-09T11:18:12;25.70;99.90
21722;DHT22;11023;48.274;7.794;2023-10-09T11:20:55;25.70;99.90
21722;DHT22;11023;48.274;7.794;2023-10-09T11:23:31;25.70;99.90
21722;DHT22;11023;48.274;7.794;2023-10-09T11:26:01;25.70;99.90
21722;DHT22;11023;48.274;7.794;2023-10-09T11:28:46;25.80;99.90
21722;DHT22;11023;48.274;7.794;2023-10-09T11:31:15;25.90;99.90
21722;DHT22;11023;48.274;7.794;2023-10-09T11:36:08;25.90;99.90
21722;DHT22;11023;48.274;7.794;2023-10-09T11:38:38;25.90;99.90
21722;DHT22;11023;48.274;7.794;2023-10-09T11:41:14;25.90;99.90
21722;DHT22;11023;48.274;7.794;2023-10-09T11:43:53;25.90;99.90
21722;DHT22;11023;48.274;7.794;2023-10-09T11:46:23;25.90;99.90
21722;DHT22;11023;48.274;7.794;2023-10-09T11:49:24;25.90;99.90
21722;DHT22;11023;48.274;7.794;2023-10-09T11:52:10;25.90;99.90
21722;DHT22;11023;48.274;7.794;2023-10-09T11:54:55;25.90;99.90
21722;DHT22;11023;48.274;7.794;2023-10-09T11:57:22;25.90;99.90
21722;DHT22;11023;48.274;7.794;2023-10-09T11:59:56;25.90;99.90
21722;DHT22;11023;48.274;7.794;2023-10-09T12:02:23;25.90;99.90
21722;DHT22;11023;48.274;7.794;2023-10-09T12:04:48;26.00;99.90
21722;DHT22;11023;48.274;7.794;2023-10-09T12:07:14;26.00;99.90
21722;DHT22;11023;48.274;7.794;2023-10-09T12:09:40;26.10;99.90
21722;DHT22;11023;48.274;7.794;2023-10-09T12:12:07;26.20;99.90
21722;DHT22;11023;48.274;7.794;2023-10-09T12:14:34;26.20;99.90
21722;DHT22;11023;48.274;7.794;2023-10-09T12:17:08;26.30;99.90
21722;DHT22;11023;48.274;7.794;2023-10-09T12:19:34;26.30;99.90
21722;DHT22;11023;48.274;7.794;2023-10-09T12:22:02;26.30;99.90
21722;DHT22;11023;48.274;7.794;2023-10-09T12:24:30;26.30;99.90
21722;DHT22;11023;48.274;7.794;2023-10-09T12:26:56;26.30;99.90
21722;DHT22;11023;48.274;7.794;2023-10-09T12:29:23;26.30;99.90
21722;DHT22;11023;48.274;7.794;2023-10-09T12:31:50;26.30;99.90
21722;DHT22;11023;48.274;7.794;2023-10-09T12:34:24;26.30;99.90
21722;DHT22;11023;48.274;7.794;2023-10-09T12:36:56;26.30;99.90
21722;DHT22;11023;48.274;7.794;2023-10-09T12:39:22;26.30;99.90
21722;DHT22;11023;48.274;7.794;2023-10-09T12:41:48;26.30;99.90
21722;DHT22;11023;48.274;7.794;2023-10-09T12:44:14;26.30;99.90
21722;DHT22;11023;48.274;7.794;2023-10-09T12:46:43;26.40;99.90
21722;DHT22;11023;48.274;7.794;2023-10-09T12:49:18;26.60;99.90
21722;DHT22;11023;48.274;7.794;2023-10-09T12:51:44;26.80;99.90
21722;DHT22;11023;48.274;7.794;2023-10-09T12:54:10;27.00;99.90
21722;DHT22;11023;48.274;7.794;2023-10-09T12:56:40;27.20;99.90
21722;DHT22;11023;48.274;7.794;2023-10-09T12:59:05;27.40;99.90
21722;DHT22;11023;48.274;7.794;2023-10-09T13:01:32;27.50;99.90
21722;DHT22;11023;48.274;7.794;2023-10-09T13:04:13;27.60;99.90
21722;DHT22;11023;48.274;7.794;2023-10-09T13:06:42;27.70;99.90
21722;DHT22;11023;48.274;7.794;2023-10-09T13:09:12;27.80;99.90
21722;DHT22;11023;48.274;7.794;2023-10-09T13:11:39;28.00;99.90
21722;DHT22;11023;48.274;7.794;2023-10-09T13:14:08;28.20;99.90
21722;DHT22;11023;48.274;7.794;2023-10-09T13:16:45;28.30;99.90
21722;DHT22;11023;48.274;7.794;2023-10-09T13:19:10;28.40;99.90
21722;DHT22;11023;48.274;7.794;2023-10-09T13:21:37;28.50;99.90
21722;DHT22;11023;48.274;7.794;2023-10-09T13:24:04;28.70;99.90
21722;DHT22;11023;48.274;7.794;2023-10-09T13:26:30;28.80;99.90
21722;DHT22;11023;48.274;7.794;2023-10-09T13:28:57;28.80;99.90
21722;DHT22;11023;48.274;7.794;2023-10-09T13:31:25;28.90;99.90
21722;DHT22;11023;48.274;7.794;2023-10-09T13:33:52;29.00;99.90
21722;DHT22;11023;48.274;7.794;2023-10-09T13:36:21;29.00;99.90
21722;DHT22;11023;48.274;7.794;2023-10-09T13:38:57;29.10;99.90
21722;DHT22;11023;48.274;7.794;2023-10-09T13:41:23;29.20;99.90
21722;DHT22;11023;48.274;7.794;2023-10-09T13:43:55;29.30;99.90
21722;DHT22;11023;48.274;7.794;2023-10-09T13:46:23;29.40;99.90
21722;DHT22;11023;48.274;7.794;2023-10-09T13:48:49;29.40;99.90
21722;DHT22;11023;48.274;7.794;2023-10-09T13:51:18;29.40;99.90
21722;DHT22;11023;48.274;7.794;2023-10-09T13:53:47;29.50;99.90
21722;DHT22;11023;48.274;7.794;2023-10-09T13:56:22;29.50;99.90
21722;DHT22;11023;48.274;7.794;2023-10-09T13:58:52;29.60;99.90
21722;DHT22;11023;48.274;7.794;2023-10-09T14:01:20;29.60;99.90
21722;DHT22;11023;48.274;7.794;2023-10-09T14:04:00;29.70;99.90
21722;DHT22;11023;48.274;7.794;2023-10-09T14:06:27;29.80;99.90
21722;DHT22;11023;48.274;7.794;2023-10-09T14:08:57;29.90;99.90
21722;DHT22;11023;48.274;7.794;2023-10-09T14:11:23;29.90;99.90
21722;DHT22;11023;48.274;7.794;2023-10-09T14:13:51;29.80;99.90
21722;DHT22;11023;48.274;7.794;2023-10-09T14:16:16;29.60;99.90
21722;DHT22;11023;48.274;7.794;2023-10-09T14:18:56;29.50;99.90
21722;DHT22;11023;48.274;7.794;2023-10-09T14:21:29;29.40;99.90
21722;DHT22;11023;48.274;7.794;2023-10-09T14:24:04;29.30;99.90
21722;DHT22;11023;48.274;7.794;2023-10-09T14:26:41;29.20;99.90
21722;DHT22;11023;48.274;7.794;2023-10-09T14:29:06;29.20;99.90
21722;DHT22;11023;48.274;7.794;2023-10-09T14:31:32;29.20;99.90
21722;DHT22;11023;48.274;7.794;2023-10-09T14:34:04;29.20;99.90
21722;DHT22;11023;48.274;7.794;2023-10-09T14:36:30;29.20;99.90
21722;DHT22;11023;48.274;7.794;2023-10-09T14:39:00;29.10;99.90
21722;DHT22;11023;48.274;7.794;2023-10-09T14:41:26;29.10;99.90
21722;DHT22;11023;48.274;7.794;2023-10-09T14:43:54;29.00;99.90
21722;DHT22;11023;48.274;7.794;2023-10-09T14:46:20;29.00;99.90
21722;DHT22;11023;48.274;7.794;2023-10-09T14:48:55;29.00;99.90
21722;DHT22;11023;48.274;7.794;2023-10-09T14:51:24;28.90;99.90
21722;DHT22;11023;48.274;7.794;2023-10-09T14:53:56;28.90;99.90
21722;DHT22;11023;48.274;7.794;2023-10-09T14:56:29;28.90;99.90
21722;DHT22;11023;48.274;7.794;2023-10-09T14:58:56;28.90;99.90
21722;DHT22;11023;48.274;7.794;2023-10-09T15:01:24;28.80;99.90
21722;DHT22;11023;48.274;7.794;2023-10-09T15:03:50;28.80;99.90
21722;DHT22;11023;48.274;7.794;2023-10-09T15:06:21;28.70;99.90
21722;DHT22;11023;48.274;7.794;2023-10-09T15:08:47;28.70;99.90
21722;DHT22;11023;48.274;7.794;2023-10-09T15:11:12;28.70;99.90
21722;DHT22;11023;48.274;7.794;2023-10-09T15:13:40;28.70;99.90
21722;DHT22;11023;48.274;7.794;2023-10-09T15:16:06;28.60;99.90
21722;DHT22;11023;48.274;7.794;2023-10-09T15:18:31;28.60;99.90
21722;DHT22;11023;48.274;7.794;2023-10-09T15:21:03;28.60;99.90
21722;DHT22;11023;48.274;7.794;2023-10-09T15:23:28;28.60;99.90
21722;DHT22;11023;48.274;7.794;2023-10-09T15:25:54;28.60;99.90
21722;DHT22;11023;48.274;7.794;2023-10-09T15:28:21;28.60;99.90
21722;DHT22;11023;48.274;7.794;2023-10-09T15:30:47;28.50;99.90
21722;DHT22;11023;48.274;7.794;2023-10-09T15:33:15;28.50;99.90
21722;DHT22;11023;48.274;7.794;2023-10-09T15:35:45;28.50;99.90
21722;DHT22;11023;48.274;7.794;2023-10-09T15:38:12;28.30;99.90
21722;DHT22;11023;48.274;7.794;2023-10-09T15:40:39;28.20;99.90
21722;DHT22;11023;48.274;7.794;2023-10-09T15:43:07;28.10;99.90
21722;DHT22;11023;48.274;7.794;2023-10-09T15:45:41;28.00;99.90
21722;DHT22;11023;48.274;7.794;2023-10-09T15:48:07;27.80;99.90
21722;DHT22;11023;48.274;7.794;2023-10-09T15:50:33;27.70;99.90
21722;DHT22;11023;48.274;7.794;2023-10-09T15:53:00;27.50;99.90
21722;DHT22;11023;48.274;7.794;2023-10-09T15:55:27;27.30;99.90
21722;DHT22;11023;48.274;7.794;2023-10-09T15:57:53;27.10;99.90
21722;DHT22;11023;48.274;7.794;2023-10-09T16:00:24;27.00;99.90
21722;DHT22;11023;48.274;7.794;2023-10-09T16:02:56;26.80;99.90
21722;DHT22;11023;48.274;7.794;2023-10-09T16:05:22;26.60;99.90
21722;DHT22;11023;48.274;7.794;2023-10-09T16:07:51;26.60;99.90
21722;DHT22;11023;48.274;7.794;2023-10-09T16:10:19;26.50;99.90
21722;DHT22;11023;48.274;7.794;2023-10-09T16:12:46;26.40;99.90
21722;DHT22;11023;48.274;7.794;2023-10-09T16:15:12;26.40;99.90
21722;DHT22;11023;48.274;7.794;2023-10-09T16:17:40;26.30;99.90